Thunder radar more information blitzortung!


Radar de pluja more information rain snow radar


Visita la nostra xarxa de llocs de meteo:

Template documentation
and downloads

And another site



Wind From: 11-12-2017 11:00 Until: 14:59 warning for: Wind Level: Yellow info button

Pagina Historial Weather Underground text

Diari Resum Setembre 25, 2017 Unitats:  Mètric    Imperial   Tant
« Previous Dia
SegĂźent Dia »
Diari Setmana Mensual Anual Personalitzada
  Maxima: Minima: Media:
Temperatura: 25.1 °C 16.1 °C 21.1 °C
Punt de rosada: 18.0 °C 11.7 °C 15.2 °C
Humitat: 93 % 56 % 70 %
Wind Speed: 20.4 km/h 0.0 km/h 8.2 km/h
RĂ fegues de vent: 20.4 km/h - -
Vent:- - East
Pression baro: 1021.9 hPa 1016.8 hPa -
Precipitacions: 0.0 mm    
Historical Graphs
 
 
Dades de taula per Setembre 25, 2017
Temps Temperatura Punt de rosada Pression baro Vent Wind Speed RĂ fegues de vent Humitat Rainfall Rate (Hourly)
00:00 18.1 °C 16.1 °C 1016.8 hPa Calm     88 % 0.0 mm
00:03 19.1 °C 16.2 °C 1019.9 hPa SW 1.9 km/h   83 % 0.0 mm
00:10 18.0 °C 16.0 °C 1016.8 hPa Calm   1.6 km/h 88 % 0.0 mm
00:20 17.7 °C 15.7 °C 1016.8 hPa SSE 1.6 km/h 1.6 km/h 88 % 0.0 mm
00:30 17.5 °C 15.5 °C 1017.8 hPa South 1.6 km/h 3.2 km/h 88 % 0.0 mm
00:40 17.4 °C 15.4 °C 1016.8 hPa SW 1.6 km/h 3.2 km/h 88 % 0.0 mm
00:50 17.3 °C 15.4 °C 1016.8 hPa Calm   3.2 km/h 89 % 0.0 mm
01:00 17.1 °C 15.3 °C 1016.8 hPa SW 1.6 km/h 3.2 km/h 89 % 0.0 mm
01:10 17.0 °C 15.2 °C 1016.8 hPa Calm   3.2 km/h 89 % 0.0 mm
01:20 16.9 °C 15.2 °C 1016.8 hPa SW 1.6 km/h 3.2 km/h 90 % 0.0 mm
01:30 16.8 °C 15.2 °C 1016.8 hPa Calm   3.2 km/h 90 % 0.0 mm
01:40 16.8 °C 15.2 °C 1017.8 hPa Calm     90 % 0.0 mm
01:50 16.7 °C 15.2 °C 1017.8 hPa Calm   1.6 km/h 91 % 0.0 mm
02:00 16.7 °C 15.2 °C 1017.8 hPa Calm     91 % 0.0 mm
02:10 16.5 °C 14.8 °C 1017.8 hPa SW 1.6 km/h 3.2 km/h 90 % 0.0 mm
02:20 16.4 °C 14.9 °C 1017.8 hPa Calm   3.2 km/h 91 % 0.0 mm
02:30 16.5 °C 15.0 °C 1017.8 hPa WSW 1.6 km/h 3.2 km/h 91 % 0.0 mm
02:40 16.6 °C 15.1 °C 1017.8 hPa Calm     91 % 0.0 mm
02:50 16.6 °C 15.3 °C 1017.8 hPa Calm     92 % 0.0 mm
03:00 16.4 °C 14.9 °C 1017.8 hPa Calm     91 % 0.0 mm
03:10 16.3 °C 15.0 °C 1017.8 hPa Calm     92 % 0.0 mm
03:20 16.1 °C 14.6 °C 1017.8 hPa Calm   3.2 km/h 91 % 0.0 mm
03:30 16.2 °C 14.9 °C 1017.8 hPa Calm   1.6 km/h 92 % 0.0 mm
03:40 16.4 °C 15.1 °C 1016.8 hPa Calm   1.6 km/h 92 % 0.0 mm
03:50 16.5 °C 15.2 °C 1016.8 hPa Calm     92 % 0.0 mm
04:00 16.7 °C 15.6 °C 1017.8 hPa Calm     93 % 0.0 mm
04:10 16.9 °C 15.8 °C 1017.8 hPa NNW 3.2 km/h 3.2 km/h 93 % 0.0 mm
04:20 17.3 °C 16.2 °C 1017.8 hPa Calm     93 % 0.0 mm
04:30 17.5 °C 16.3 °C 1017.8 hPa Calm     93 % 0.0 mm
04:40 17.7 °C 16.4 °C 1017.8 hPa Calm     92 % 0.0 mm
04:50 18.1 °C 16.6 °C 1017.8 hPa Calm   1.6 km/h 91 % 0.0 mm
05:00 18.5 °C 17.0 °C 1017.8 hPa SE 1.6 km/h 3.2 km/h 91 % 0.0 mm
05:10 18.8 °C 17.1 °C 1017.8 hPa Calm   3.2 km/h 90 % 0.0 mm
05:20 19.2 °C 17.2 °C 1017.8 hPa NNE 1.6 km/h 4.8 km/h 88 % 0.0 mm
05:30 19.3 °C 16.9 °C 1018.8 hPa NNE 4.8 km/h 6.4 km/h 86 % 0.0 mm
10:32 20.0 °C 17.4 °C 1018.8 hPa NNE 5.6 km/h 7.2 km/h 85 % 0.0 mm
10:33 20.0 °C 17.4 °C 1018.8 hPa NNE 5.6 km/h 7.2 km/h 85 % 0.0 mm
10:34 19.9 °C 17.3 °C 1017.8 hPa ENE 11.1 km/h 11.1 km/h 85 % 0.0 mm
10:39 19.9 °C 17.1 °C 1017.8 hPa WNW 3.7 km/h 3.7 km/h 84 % 0.0 mm
10:44 20.0 °C 17.0 °C 1017.8 hPa NNE 1.9 km/h   83 % 0.0 mm
10:49 19.9 °C 16.9 °C 1018.8 hPa East 7.4 km/h 7.4 km/h 83 % 0.0 mm
10:54 20.2 °C 17.0 °C 1018.8 hPa NE 3.7 km/h 3.7 km/h 82 % 0.0 mm
10:59 20.7 °C 17.5 °C 1018.8 hPa ENE 7.4 km/h 7.4 km/h 82 % 0.0 mm
11:04 20.8 °C 17.4 °C 1018.8 hPa NNE 7.4 km/h 7.4 km/h 81 % 0.0 mm
11:09 21.2 °C 17.6 °C 1018.8 hPa ENE 6.1 km/h 6.1 km/h 80 % 0.0 mm
11:14 21.4 °C 17.6 °C 1018.8 hPa ENE 7.4 km/h 7.4 km/h 79 % 0.0 mm
11:19 21.3 °C 17.5 °C 1017.8 hPa ENE 5.6 km/h 5.6 km/h 79 % 0.0 mm
11:24 21.6 °C 17.6 °C 1017.8 hPa East 5.6 km/h 5.6 km/h 78 % 0.0 mm
11:29 21.9 °C 17.9 °C 1017.8 hPa East 9.3 km/h 9.3 km/h 78 % 0.0 mm
11:34 22.0 °C 17.6 °C 1018.8 hPa ENE 9.3 km/h 9.3 km/h 76 % 0.0 mm
11:39 22.0 °C 17.6 °C 1018.8 hPa ESE 9.3 km/h 9.3 km/h 76 % 0.0 mm
11:44 22.0 °C 17.4 °C 1018.8 hPa NE 5.8 km/h 5.8 km/h 75 % 0.0 mm
11:49 22.4 °C 17.6 °C 1018.8 hPa SE 9.3 km/h 9.3 km/h 74 % 0.0 mm
11:54 23.0 °C 17.9 °C 1018.8 hPa SE 9.3 km/h 9.3 km/h 73 % 0.0 mm
11:59 22.9 °C 17.6 °C 1018.8 hPa East 9.3 km/h 9.3 km/h 72 % 0.0 mm
12:04 23.1 °C 17.8 °C 1018.8 hPa East 9.3 km/h 9.3 km/h 72 % 0.0 mm
12:09 23.4 °C 17.8 °C 1018.8 hPa ESE 7.4 km/h 7.4 km/h 71 % 0.0 mm
12:14 23.8 °C 18.0 °C 1018.8 hPa ESE 11.1 km/h 11.1 km/h 70 % 0.0 mm
12:19 23.7 °C 17.9 °C 1017.8 hPa ENE 10.3 km/h 10.3 km/h 70 % 0.0 mm
12:24 23.6 °C 17.3 °C 1017.8 hPa NE 20.4 km/h 20.4 km/h 68 % 0.0 mm
12:29 24.0 °C 17.5 °C 1017.8 hPa South 9.3 km/h 9.3 km/h 67 % 0.0 mm
12:34 24.3 °C 17.6 °C 1017.8 hPa East 7.4 km/h 7.4 km/h 66 % 0.0 mm
12:39 24.2 °C 17.4 °C 1017.8 hPa SSW 14.8 km/h 14.8 km/h 66 % 0.0 mm
12:44 24.1 °C 17.1 °C 1017.8 hPa ENE 13.0 km/h 13.0 km/h 65 % 0.0 mm
12:49 24.0 °C 16.5 °C 1018.8 hPa ENE 18.5 km/h 18.5 km/h 63 % 0.0 mm
12:54 24.2 °C 16.9 °C 1018.8 hPa South 9.3 km/h 9.3 km/h 64 % 0.0 mm
12:59 24.6 °C 17.3 °C 1018.8 hPa ENE 5.8 km/h 5.8 km/h 64 % 0.0 mm
13:04 24.3 °C 17.1 °C 1018.8 hPa ESE 9.3 km/h 9.3 km/h 64 % 0.0 mm
13:05 24.3 °C 17.1 °C 1018.8 hPa ENE 9.5 km/h 9.5 km/h 64 % 0.0 mm
13:10 24.0 °C 16.8 °C 1018.8 hPa ENE 11.1 km/h 11.1 km/h 64 % 0.0 mm
13:15 24.1 °C 17.1 °C 1018.8 hPa ESE 7.4 km/h 7.4 km/h 65 % 0.0 mm
13:20 24.4 °C 16.9 °C 1017.8 hPa South 7.4 km/h 7.4 km/h 63 % 0.0 mm
13:25 24.6 °C 16.6 °C 1017.8 hPa East 13.0 km/h 13.0 km/h 61 % 0.0 mm
13:30 24.3 °C 16.1 °C 1017.8 hPa ESE 14.8 km/h 14.8 km/h 60 % 0.0 mm
13:35 24.4 °C 16.1 °C 1017.8 hPa ESE 18.5 km/h 18.5 km/h 60 % 0.0 mm
13:40 24.5 °C 15.9 °C 1017.8 hPa ESE 14.8 km/h 14.8 km/h 59 % 0.0 mm
13:45 24.5 °C 15.7 °C 1017.8 hPa ENE 16.7 km/h 16.7 km/h 58 % 0.0 mm
13:50 24.7 °C 16.2 °C 1017.8 hPa ESE 8.7 km/h 8.7 km/h 59 % 0.0 mm
13:55 24.7 °C 16.2 °C 1017.8 hPa ESE 7.4 km/h 7.4 km/h 59 % 0.0 mm
14:00 24.7 °C 16.2 °C 1017.8 hPa ESE 11.1 km/h 11.1 km/h 59 % 0.0 mm
14:05 24.4 °C 16.1 °C 1017.8 hPa ESE 9.3 km/h 9.3 km/h 60 % 0.0 mm
14:10 25.1 °C 16.8 °C 1017.8 hPa NNE 14.8 km/h 14.8 km/h 60 % 0.0 mm
14:15 25.1 °C 16.5 °C 1017.8 hPa East 9.3 km/h 9.3 km/h 59 % 0.0 mm
14:20 24.7 °C 16.4 °C 1017.8 hPa ESE 13.0 km/h 13.0 km/h 60 % 0.0 mm
14:25 24.4 °C 16.4 °C 1017.8 hPa East 5.6 km/h 9.0 km/h 61 % 0.0 mm
14:30 24.9 °C 16.6 °C 1017.8 hPa ENE 14.0 km/h 14.0 km/h 60 % 0.0 mm
14:35 24.6 °C 16.3 °C 1017.8 hPa ENE 11.1 km/h 11.1 km/h 60 % 0.0 mm
14:40 24.6 °C 16.1 °C 1017.8 hPa ENE 8.7 km/h 8.7 km/h 59 % 0.0 mm
14:45 24.7 °C 16.4 °C 1017.8 hPa East 9.3 km/h 9.3 km/h 60 % 0.0 mm
14:50 24.8 °C 16.5 °C 1017.8 hPa ESE 13.0 km/h 13.0 km/h 60 % 0.0 mm
14:55 25.0 °C 16.4 °C 1017.8 hPa ESE 11.1 km/h 11.1 km/h 59 % 0.0 mm
15:00 24.6 °C 16.3 °C 1017.8 hPa East 15.6 km/h 15.6 km/h 60 % 0.0 mm
15:05 24.7 °C 16.9 °C 1017.8 hPa ESE 11.1 km/h 11.1 km/h 62 % 0.0 mm
15:10 24.5 °C 16.5 °C 1017.8 hPa East 9.3 km/h 9.3 km/h 61 % 0.0 mm
15:15 24.3 °C 16.6 °C 1017.8 hPa ENE 13.0 km/h 13.0 km/h 62 % 0.0 mm
15:20 24.4 °C 16.9 °C 1017.8 hPa ENE 9.7 km/h 9.7 km/h 63 % 0.0 mm
15:25 24.2 °C 16.7 °C 1017.8 hPa ENE 11.1 km/h 11.1 km/h 63 % 0.0 mm
15:30 24.1 °C 16.6 °C 1017.8 hPa ENE 9.3 km/h 9.3 km/h 63 % 0.0 mm
15:35 24.1 °C 16.6 °C 1017.8 hPa ESE 9.7 km/h 9.7 km/h 63 % 0.0 mm
15:40 24.0 °C 16.5 °C 1017.8 hPa ESE 15.6 km/h 15.6 km/h 63 % 0.0 mm
15:45 23.9 °C 16.7 °C 1017.8 hPa ESE 18.5 km/h 18.5 km/h 64 % 0.0 mm
15:50 23.9 °C 16.7 °C 1017.8 hPa ESE 9.3 km/h 9.3 km/h 64 % 0.0 mm
15:55 23.9 °C 16.7 °C 1017.8 hPa ESE 16.1 km/h 16.1 km/h 64 % 0.0 mm
16:00 23.8 °C 16.6 °C 1017.8 hPa ENE 12.6 km/h 12.6 km/h 64 % 0.0 mm
16:05 24.0 °C 16.5 °C 1017.8 hPa ESE 9.3 km/h 9.3 km/h 63 % 0.0 mm
16:10 23.9 °C 16.7 °C 1017.8 hPa East 9.3 km/h 9.3 km/h 64 % 0.0 mm
16:15 24.0 °C 16.3 °C 1017.8 hPa East 13.0 km/h 13.0 km/h 62 % 0.0 mm
16:20 23.8 °C 16.3 °C 1017.8 hPa ESE 14.8 km/h 14.8 km/h 63 % 0.0 mm
16:23 23.8 °C 16.3 °C 1017.8 hPa ENE 13.0 km/h 13.0 km/h 63 % 0.0 mm
16:28 23.8 °C 16.3 °C 1017.8 hPa ENE 14.8 km/h 14.8 km/h 63 % 0.0 mm
16:33 24.0 °C 16.3 °C 1016.8 hPa South 7.4 km/h 7.4 km/h 62 % 0.0 mm
16:38 24.1 °C 16.1 °C 1016.8 hPa SE 7.4 km/h 7.4 km/h 61 % 0.0 mm
16:43 24.0 °C 16.0 °C 1016.8 hPa ESE 9.0 km/h 9.0 km/h 61 % 0.0 mm
16:48 23.8 °C 15.8 °C 1017.8 hPa ESE 13.0 km/h 13.0 km/h 61 % 0.0 mm
16:53 23.8 °C 16.1 °C 1017.8 hPa East 13.0 km/h 13.0 km/h 62 % 0.0 mm
16:58 23.5 °C 15.6 °C 1017.8 hPa ENE 14.8 km/h 14.8 km/h 61 % 0.0 mm
17:03 23.5 °C 15.6 °C 1017.8 hPa East 14.8 km/h 14.8 km/h 61 % 0.0 mm
17:08 23.6 °C 15.6 °C 1017.8 hPa ENE 11.1 km/h 11.1 km/h 61 % 0.0 mm
17:13 23.6 °C 15.6 °C 1017.8 hPa ESE 11.1 km/h 11.1 km/h 61 % 0.0 mm
17:18 23.4 °C 15.4 °C 1016.8 hPa SSW 16.7 km/h 16.7 km/h 61 % 0.0 mm
17:23 23.4 °C 15.7 °C 1016.8 hPa ENE 9.3 km/h 9.3 km/h 62 % 0.0 mm
17:28 23.4 °C 15.4 °C 1016.8 hPa ESE 13.0 km/h 13.0 km/h 61 % 0.0 mm
17:33 23.4 °C 15.4 °C 1017.8 hPa SE 18.5 km/h 18.5 km/h 61 % 0.0 mm
17:38 23.5 °C 15.3 °C 1017.8 hPa ESE 11.1 km/h 11.1 km/h 60 % 0.0 mm
17:43 23.7 °C 15.5 °C 1017.8 hPa ESE 16.1 km/h 16.1 km/h 60 % 0.0 mm
17:48 23.5 °C 15.3 °C 1017.8 hPa ENE 9.3 km/h 9.3 km/h 60 % 0.0 mm
17:53 23.6 °C 15.4 °C 1017.8 hPa ESE 9.3 km/h 9.3 km/h 60 % 0.0 mm
17:58 23.3 °C 15.1 °C 1017.8 hPa ESE 11.1 km/h 11.1 km/h 60 % 0.0 mm
18:03 23.3 °C 15.1 °C 1017.8 hPa ESE 14.0 km/h 14.0 km/h 60 % 0.0 mm
18:08 23.1 °C 15.2 °C 1017.8 hPa ENE 12.6 km/h 12.6 km/h 61 % 0.0 mm
18:13 23.0 °C 14.8 °C 1017.8 hPa ESE 10.3 km/h 10.3 km/h 60 % 0.0 mm
18:18 23.0 °C 15.1 °C 1017.8 hPa ENE 13.0 km/h 13.0 km/h 61 % 0.0 mm
18:23 22.9 °C 15.0 °C 1017.8 hPa ESE 11.1 km/h 11.1 km/h 61 % 0.0 mm
18:28 22.9 °C 15.0 °C 1017.8 hPa East 11.1 km/h 11.1 km/h 61 % 0.0 mm
18:33 22.8 °C 14.9 °C 1017.8 hPa ESE 9.3 km/h 9.3 km/h 61 % 0.0 mm
18:38 22.8 °C 14.9 °C 1017.8 hPa SSW 9.3 km/h 9.3 km/h 61 % 0.0 mm
18:43 22.8 °C 14.9 °C 1017.8 hPa ESE 13.0 km/h 13.0 km/h 61 % 0.0 mm
18:48 22.7 °C 15.1 °C 1018.8 hPa SE 9.3 km/h 9.3 km/h 62 % 0.0 mm
18:53 22.5 °C 14.8 °C 1018.8 hPa ESE 13.0 km/h 13.0 km/h 62 % 0.0 mm
18:58 22.3 °C 14.9 °C 1018.8 hPa ESE 12.2 km/h 12.2 km/h 63 % 0.0 mm
19:03 22.2 °C 14.8 °C 1017.8 hPa SE 12.2 km/h 12.2 km/h 63 % 0.0 mm
19:08 22.1 °C 14.9 °C 1017.8 hPa ESE 9.3 km/h 9.3 km/h 64 % 0.0 mm
19:13 22.1 °C 14.9 °C 1017.8 hPa SSE 13.0 km/h 13.0 km/h 64 % 0.0 mm
19:18 22.1 °C 14.9 °C 1017.8 hPa ENE 10.0 km/h 10.0 km/h 64 % 0.0 mm
19:23 21.9 °C 15.3 °C 1017.8 hPa ENE 9.3 km/h 9.3 km/h 66 % 0.0 mm
19:28 21.9 °C 15.3 °C 1017.8 hPa ESE 5.6 km/h 5.6 km/h 66 % 0.0 mm
19:33 21.8 °C 15.2 °C 1018.8 hPa ESE 14.5 km/h 14.5 km/h 66 % 0.0 mm
19:38 21.7 °C 15.1 °C 1018.8 hPa East 11.1 km/h 11.1 km/h 66 % 0.0 mm
19:43 21.6 °C 14.5 °C 1018.8 hPa ESE 11.1 km/h 11.1 km/h 64 % 0.0 mm
19:48 21.5 °C 14.2 °C 1019.9 hPa NE 11.1 km/h 11.1 km/h 63 % 0.0 mm
19:53 21.4 °C 14.1 °C 1019.9 hPa ENE 7.4 km/h 7.4 km/h 63 % 0.0 mm
19:58 21.3 °C 13.9 °C 1019.9 hPa NNE 5.0 km/h 5.0 km/h 63 % 0.0 mm
20:03 21.2 °C 13.9 °C 1019.9 hPa ENE 9.3 km/h 9.3 km/h 63 % 0.0 mm
20:08 21.1 °C 13.6 °C 1019.9 hPa North 9.7 km/h 9.7 km/h 62 % 0.0 mm
20:13 21.1 °C 13.3 °C 1019.9 hPa NNW 14.0 km/h 14.0 km/h 61 % 0.0 mm
20:18 21.1 °C 12.8 °C 1019.9 hPa North 16.7 km/h 16.7 km/h 59 % 0.0 mm
20:23 21.1 °C 12.5 °C 1019.9 hPa NNE 13.0 km/h 13.0 km/h 58 % 0.0 mm
20:28 21.1 °C 12.5 °C 1019.9 hPa ENE 13.7 km/h 13.7 km/h 58 % 0.0 mm
20:33 21.0 °C 12.7 °C 1019.9 hPa NNE 12.6 km/h 12.6 km/h 59 % 0.0 mm
20:38 20.9 °C 12.1 °C 1019.9 hPa East 9.3 km/h 9.3 km/h 57 % 0.0 mm
20:43 20.9 °C 12.1 °C 1019.9 hPa ENE 9.3 km/h 9.3 km/h 57 % 0.0 mm
20:48 20.9 °C 11.8 °C 1019.9 hPa ESE 16.7 km/h 16.7 km/h 56 % 0.0 mm
20:53 20.6 °C 11.8 °C 1019.9 hPa NNE 13.0 km/h 13.0 km/h 57 % 0.0 mm
20:58 20.2 °C 11.9 °C 1019.9 hPa NNW 11.1 km/h 11.1 km/h 59 % 0.0 mm
21:03 19.9 °C 12.2 °C 1019.9 hPa NNE 14.8 km/h 14.8 km/h 61 % 0.0 mm
21:08 19.9 °C 12.2 °C 1019.9 hPa ENE 7.4 km/h 7.4 km/h 61 % 0.0 mm
21:13 19.7 °C 12.2 °C 1019.9 hPa NNE 9.3 km/h 9.3 km/h 62 % 0.0 mm
21:18 19.5 °C 12.3 °C 1020.9 hPa ENE 9.3 km/h 9.3 km/h 63 % 0.0 mm
21:23 19.3 °C 12.1 °C 1020.9 hPa ENE 5.0 km/h 5.0 km/h 63 % 0.0 mm
21:28 19.2 °C 12.0 °C 1020.9 hPa East 5.6 km/h 5.6 km/h 63 % 0.0 mm
21:33 19.2 °C 12.0 °C 1020.9 hPa ENE 7.4 km/h 7.4 km/h 63 % 0.0 mm
21:38 19.1 °C 11.7 °C 1020.9 hPa ENE 14.8 km/h 14.8 km/h 62 % 0.0 mm
21:43 19.0 °C 11.8 °C 1020.9 hPa NE 11.1 km/h 11.1 km/h 63 % 0.0 mm
21:48 19.0 °C 11.8 °C 1021.9 hPa NE 5.6 km/h 5.6 km/h 63 % 0.0 mm
21:53 18.9 °C 12.2 °C 1021.9 hPa NNE 1.9 km/h 1.9 km/h 65 % 0.0 mm
21:58 18.8 °C 12.1 °C 1021.9 hPa ENE 1.9 km/h 1.9 km/h 65 % 0.0 mm
22:03 18.7 °C 12.2 °C 1021.9 hPa North 4.7 km/h 4.7 km/h 66 % 0.0 mm
22:08 18.3 °C 12.3 °C 1021.9 hPa North 2.3 km/h 2.3 km/h 68 % 0.0 mm
22:13 18.1 °C 12.3 °C 1021.9 hPa NNE 6.9 km/h 6.9 km/h 69 % 0.0 mm
22:18 17.9 °C 12.3 °C 1021.9 hPa NNE 5.6 km/h 5.6 km/h 70 % 0.0 mm
22:23 17.8 °C 12.4 °C 1021.9 hPa NE 5.6 km/h 5.6 km/h 71 % 0.0 mm
22:28 17.7 °C 12.6 °C 1021.9 hPa NNE 4.7 km/h 4.7 km/h 72 % 0.0 mm
22:33 17.6 °C 12.5 °C 1021.9 hPa NNE 3.7 km/h 3.7 km/h 72 % 0.0 mm
22:38 17.5 °C 12.4 °C 1021.9 hPa ENE 5.6 km/h 5.6 km/h 72 % 0.0 mm
22:43 17.3 °C 12.2 °C 1021.9 hPa NNE 9.3 km/h 9.3 km/h 72 % 0.0 mm
22:48 17.2 °C 12.3 °C 1021.9 hPa ENE 6.1 km/h 6.1 km/h 73 % 0.0 mm
22:53 17.2 °C 12.3 °C 1021.9 hPa NNE 9.3 km/h 9.3 km/h 73 % 0.0 mm
22:58 17.1 °C 12.2 °C 1021.9 hPa North 7.4 km/h 7.4 km/h 73 % 0.0 mm
23:03 17.1 °C 12.2 °C 1021.9 hPa North 5.8 km/h 5.8 km/h 73 % 0.0 mm
23:08 17.1 °C 12.2 °C 1021.9 hPa NNE 7.4 km/h 7.4 km/h 73 % 0.0 mm
23:13 17.1 °C 12.4 °C 1021.9 hPa NE 6.4 km/h 6.4 km/h 74 % 0.0 mm
23:18 17.0 °C 12.3 °C 1021.9 hPa ENE 3.7 km/h 3.7 km/h 74 % 0.0 mm
23:23 17.0 °C 12.3 °C 1021.9 hPa NNE 5.6 km/h 5.6 km/h 74 % 0.0 mm
23:28 17.0 °C 12.3 °C 1021.9 hPa NNE 6.1 km/h 6.1 km/h 74 % 0.0 mm
23:29 17.0 °C 12.3 °C 1021.9 hPa North 9.3 km/h 9.3 km/h 74 % 0.0 mm
23:34 16.9 °C 12.7 °C 1021.9 hPa ENE 5.6 km/h 5.6 km/h 76 % 0.0 mm
23:39 16.9 °C 12.7 °C 1021.9 hPa ENE 5.6 km/h 5.6 km/h 76 % 0.0 mm
23:44 16.8 °C 12.6 °C 1021.9 hPa NE 3.7 km/h 3.7 km/h 76 % 0.0 mm
23:49 16.8 °C 12.6 °C 1021.9 hPa NE 1.9 km/h   76 % 0.0 mm
23:54 16.7 °C 12.4 °C 1021.9 hPa Calm     76 % 0.0 mm
23:59 16.6 °C 12.3 °C 1021.9 hPa Calm     76 % 0.0 mm
Meteo Sesrovires
Elogis d' Weather Underground - 3.5 mb

Guio original per  Jim McMurry - jmcmurry@mwt.net Adaptat per a la plantilla per  Wim van der Kuil - Leuven-Template.eu

Trobareu la nostra informacio del temps tambe a:

Weather Underground

AWEKAS